Time;durP1;ratioP1;P1;durP2;ratioP2;P2;SDS_P1;SDS_P2;PMS_P1;PMS_P2;Temp;Humidity;BMP_temperature;BMP_pressure;BME280_temperature;BME280_humidity;BME280_pressure;Samples;Min_cycle;Max_cycle;Signal;HPM_P1;HPM_P2
2021/12/05 00:20:12;;;;;;;17.10;4.07;;;;;;;2.85;82.83;99736.31;5070962;28;20031;-83
2021/12/05 00:22:43;;;;;;;16.87;4.57;;;;;;;2.83;82.93;99731.22;5075918;28;20078;-83
2021/12/05 00:25:15;;;;;;;15.48;4.07;;;;;;;2.85;82.78;99739.75;5074015;28;20021;-83
2021/12/05 00:27:47;;;;;;;19.73;4.57;;;;;;;2.83;82.91;99733.78;5073570;28;20142;-83
2021/12/05 00:41:06;;;;;;;13.70;4.90;;;;;;;2.85;82.97;99739.75;5068895;28;20132;-83
2021/12/05 00:59:17;;;;;;;17.60;5.00;;;;;;;2.79;82.77;99739.81;5071069;28;20028;-83
2021/12/05 01:12:36;;;;;;;15.37;5.67;;;;;;;2.66;82.56;99745.97;5069517;28;20090;-84
2021/12/05 01:15:06;;;;;;;19.07;5.80;;;;;;;2.60;82.87;99743.47;5069140;28;20028;-83
2021/12/05 01:17:43;;;;;;;21.37;5.73;;;;;;;2.53;82.85;99740.09;5069826;28;20107;-84
2021/12/05 01:20:16;;;;;;;20.17;5.77;;;;;;;2.49;82.58;99748.69;5068312;28;20036;-84
2021/12/05 01:22:48;;;;;;;20.47;5.93;;;;;;;2.46;82.56;99751.31;5067094;28;20033;-83
2021/12/05 01:27:49;;;;;;;18.53;5.37;;;;;;;2.37;83.01;99744.56;5067494;28;20184;-83
2021/12/05 01:30:33;;;;;;;19.93;5.67;;;;;;;2.33;82.97;99748.84;5067143;28;20078;-84
2021/12/05 01:33:11;;;;;;;22.23;5.73;;;;;;;2.30;82.96;99750.59;5066153;28;20025;-83
2021/12/05 01:38:29;;;;;;;20.60;5.43;;;;;;;2.20;82.84;99747.28;5067118;28;20068;-83
2021/12/05 01:49:10;;;;;;;19.10;5.07;;;;;;;2.08;83.41;99741.41;5067988;28;20040;-83
2021/12/05 01:51:53;;;;;;;15.83;4.80;;;;;;;2.05;83.48;99743.97;5066087;28;20089;-83
2021/12/05 01:54:37;;;;;;;21.23;4.88;;;;;;;2.03;83.63;99750.84;5066567;28;20396;-83
2021/12/05 02:00:23;;;;;;;16.97;4.50;;;;;;;1.97;83.84;99753.44;5070404;28;20050;-83
2021/12/05 02:16:29;;;;;;;13.57;3.80;;;;;;;1.95;83.89;99737.25;5068789;28;20395;-83
2021/12/05 02:43:09;;;;;;;12.73;3.43;;;;;;;1.87;84.88;99723.63;5068337;28;20348;-83
2021/12/05 02:45:38;;;;;;;15.53;4.03;;;;;;;1.86;84.90;99721.91;5066483;28;20059;-83
2021/12/05 02:48:04;;;;;;;14.47;3.90;;;;;;;1.85;84.88;99721.06;5068630;28;20028;-83
2021/12/05 02:50:31;;;;;;;19.67;3.93;;;;;;;1.87;85.10;99713.34;5064848;28;20020;-84
2021/12/05 02:53:06;;;;;;;17.13;3.90;;;;;;;1.86;85.18;99707.41;5068346;28;20020;-83
2021/12/05 02:55:40;;;;;;;15.07;3.73;;;;;;;1.84;85.04;99716.81;5071154;28;20021;-83
2021/12/05 02:58:16;;;;;;;12.60;3.60;;;;;;;1.86;85.34;99715.09;5069141;28;20115;-83
2021/12/05 03:03:19;;;;;;;12.27;3.73;;;;;;;1.85;85.36;99709.94;5071149;28;20032;-83
2021/12/05 03:05:51;;;;;;;17.93;3.83;;;;;;;1.82;85.39;99716.81;5071644;28;20016;-83
2021/12/05 03:08:16;;;;;;;;;;;;;;;1.90;85.24;99719.31;5069525;28;20048;-83
2021/12/05 03:10:43;;;;;;;16.53;3.57;;;;;;;1.82;85.30;99715.97;5071023;28;19912;-83
2021/12/05 03:13:08;;;;;;;12.87;3.70;;;;;;;1.81;85.40;99715.09;5070488;28;20047;-83
2021/12/05 03:15:34;;;;;;;16.00;3.63;;;;;;;1.79;85.42;99721.94;5070935;28;20107;-84
2021/12/05 03:17:59;;;;;;;14.67;3.60;;;;;;;1.82;85.63;99726.22;5069655;28;20027;-83
2021/12/05 03:20:24;;;;;;;12.40;3.73;;;;;;;1.83;85.73;99722.78;5074756;28;20539;-84
2021/12/05 03:22:51;;;;;;;10.07;3.20;;;;;;;1.88;85.74;99726.16;5070823;28;20086;-83
2021/12/05 03:25:16;;;;;;;16.57;3.60;;;;;;;1.91;86.00;99723.56;5069468;28;20541;-83
2021/12/05 03:27:42;;;;;;;15.07;3.73;;;;;;;1.94;86.05;99718.41;5071142;28;20028;-83
2021/12/05 03:30:14;;;;;;;14.07;3.70;;;;;;;1.99;85.87;99728.63;5070147;28;20415;-83
2021/12/05 03:32:39;;;;;;;;;;;;;;;2.10;85.97;99731.97;5070564;28;20017;-83
2021/12/05 03:35:07;;;;;;;15.87;3.23;;;;;;;2.05;85.56;99733.72;5067346;28;19969;-83
2021/12/05 03:37:32;;;;;;;11.57;3.40;;;;;;;2.06;85.67;99725.16;5070525;28;20112;-83
2021/12/05 03:39:58;;;;;;;16.03;3.70;;;;;;;2.09;85.73;99734.53;5070062;28;20543;-84
2021/12/05 03:42:24;;;;;;;15.67;4.17;;;;;;;2.09;85.61;99724.28;5070323;28;20500;-83
2021/12/05 03:44:49;;;;;;;11.60;3.87;;;;;;;2.10;85.57;99725.97;5069464;28;20027;-83
2021/12/05 03:47:15;;;;;;;15.70;4.80;;;;;;;2.13;85.54;99723.38;5071273;28;20024;-83
2021/12/05 03:49:40;;;;;;;11.90;4.10;;;;;;;2.14;85.60;99717.41;5070587;28;20400;-84
2021/12/05 03:52:15;;;;;;;12.20;4.20;;;;;;;2.14;85.47;99717.41;5070725;28;20471;-83
2021/12/05 03:54:41;;;;;;;11.63;4.30;;;;;;;2.14;85.59;99717.41;5066866;28;20112;-83
2021/12/05 03:57:07;;;;;;;13.30;4.97;;;;;;;2.15;85.73;99716.53;5071968;28;20035;-83
2021/12/05 03:59:33;;;;;;;15.17;4.67;;;;;;;2.16;85.66;99709.66;5069363;28;20042;-83
2021/12/05 04:02:00;;;;;;;13.60;4.50;;;;;;;2.15;85.58;99719.09;5070148;28;20024;-83
2021/12/05 04:04:26;;;;;;;14.93;4.50;;;;;;;2.16;85.78;99710.53;5068859;28;20153;-83
2021/12/05 04:06:51;;;;;;;14.13;4.57;;;;;;;2.17;85.71;99713.94;5068013;28;20187;-83
2021/12/05 04:09:18;;;;;;;13.50;4.83;;;;;;;2.17;85.87;99719.06;5067936;28;20528;-83
2021/12/05 04:11:56;;;;;;;15.37;4.80;;;;;;;2.18;85.68;99719.06;5070076;28;20040;-83
2021/12/05 04:14:21;;;;;;;11.40;4.57;;;;;;;2.21;85.88;99713.91;5069467;28;20037;-83
2021/12/05 04:16:47;;;;;;;14.33;4.97;;;;;;;2.23;85.69;99711.31;5069913;28;20078;-83
2021/12/05 04:19:12;;;;;;;12.43;4.67;;;;;;;2.26;85.72;99721.56;5068059;28;20034;-83
2021/12/05 04:21:39;;;;;;;11.80;4.63;;;;;;;2.26;85.71;99726.69;5068119;28;20107;-83
2021/12/05 04:24:07;;;;;;;15.77;4.87;;;;;;;2.30;85.67;99722.38;5067514;28;20095;-83
2021/12/05 04:26:33;;;;;;;9.40;4.37;;;;;;;2.34;85.50;99722.31;5069856;28;20028;-83
2021/12/05 04:28:58;;;;;;;11.13;4.80;;;;;;;2.38;85.36;99720.59;5069899;28;20017;-83
2021/12/05 04:31:24;;;;;;;13.53;4.93;;;;;;;2.38;85.61;99708.59;5066543;28;20479;-83
2021/12/05 04:33:51;;;;;;;12.47;4.40;;;;;;;2.40;85.43;99716.28;5068612;28;20119;-84
2021/12/05 04:36:19;;;;;;;9.17;4.50;;;;;;;2.41;85.39;99717.97;5069785;28;20025;-83
2021/12/05 04:38:46;;;;;;;9.63;4.33;;;;;;;2.46;85.33;99716.22;5070201;28;20055;-84
2021/12/05 04:41:11;;;;;;;11.33;4.50;;;;;;;2.47;85.49;99710.22;5069785;28;20467;-83
2021/12/05 04:43:38;;;;;;;8.53;4.20;;;;;;;2.48;85.24;99716.19;5068460;28;20582;-84
2021/12/05 04:46:10;;;;;;;12.50;4.67;;;;;;;2.47;85.40;99715.34;5067712;28;20013;-83
2021/12/05 04:48:36;;;;;;;11.10;4.17;;;;;;;2.48;85.42;99714.50;5068889;28;20029;-83
2021/12/05 04:51:02;;;;;;;13.40;4.40;;;;;;;2.48;85.15;99711.06;5068815;28;20348;-83
2021/12/05 04:53:28;;;;;;;10.07;4.20;;;;;;;2.49;85.14;99712.75;5068976;28;20468;-84
2021/12/05 04:55:55;;;;;;;11.67;3.93;;;;;;;2.50;85.27;99714.47;5069944;28;20442;-83
2021/12/05 04:58:20;;;;;;;11.10;4.13;;;;;;;2.51;85.13;99716.16;5067890;28;20016;-84
2021/12/05 05:00:47;;;;;;;12.53;4.03;;;;;;;2.52;85.23;99711.03;5066223;28;20086;-83
2021/12/05 05:03:14;;;;;;;11.27;4.47;;;;;;;2.54;84.85;99717.00;5068653;28;20028;-83
2021/12/05 05:05:46;;;;;;;8.43;3.87;;;;;;;2.55;84.92;99716.13;5067044;28;20027;-83
2021/12/05 05:08:11;;;;;;;10.47;4.07;;;;;;;2.57;85.22;99709.25;5069625;28;20040;-84
2021/12/05 05:10:37;;;;;;;9.70;4.10;;;;;;;2.58;85.03;99717.81;5066820;28;20035;-83
2021/12/05 05:13:03;;;;;;;10.20;3.97;;;;;;;2.61;85.27;99712.66;5067889;28;20460;-83
2021/12/05 05:15:30;;;;;;;10.43;3.90;;;;;;;2.63;85.18;99712.63;5069342;28;20112;-83
2021/12/05 05:17:57;;;;;;;7.50;3.30;;;;;;;2.62;85.38;99721.19;5068537;28;20040;-83
2021/12/05 05:20:54;;;;;;;10.57;3.47;;;;;;;2.63;85.25;99717.75;5068684;28;20372;-83
2021/12/05 05:26:34;;;;;;;7.70;3.37;;;;;;;2.65;85.29;99723.72;5069446;28;20035;-83
2021/12/05 05:40:03;;;;;;;9.47;3.57;;;;;;;2.66;85.59;99733.13;5068573;28;20039;-83
2021/12/05 05:45:33;;;;;;;10.13;3.57;;;;;;;2.67;85.21;99734.84;5067627;28;20043;-83
2021/12/05 05:48:14;;;;;;;8.90;3.70;;;;;;;2.65;85.36;99734.84;5066742;28;20060;-84
2021/12/05 05:50:40;;;;;;;8.85;3.67;;;;;;;2.67;85.40;99743.38;5067561;28;20078;-83
2021/12/05 05:53:06;;;;;;;7.37;3.80;;;;;;;2.64;85.70;99745.13;5065984;28;20028;-83
2021/12/05 05:55:32;;;;;;;7.23;3.80;;;;;;;2.64;85.77;99755.41;5069257;28;20035;-83
2021/12/05 05:58:09;;;;;;;8.53;3.70;;;;;;;2.64;85.81;99761.41;5066483;28;20089;-83
2021/12/05 06:00:40;;;;;;;7.43;3.50;;;;;;;2.62;85.44;99759.69;5066019;28;20024;-84
2021/12/05 06:03:21;;;;;;;5.63;3.40;;;;;;;2.64;85.71;99758.84;5067315;28;20103;-83
2021/12/05 06:05:59;;;;;;;8.53;3.33;;;;;;;2.64;85.44;99763.97;5068535;28;20024;-83
2021/12/05 06:08:27;;;;;;;5.90;2.43;;;;;;;2.64;84.91;99763.09;5069848;28;20051;-83
2021/12/05 06:10:56;;;;;;;6.47;2.63;;;;;;;2.60;84.82;99771.69;5066520;28;20115;-83
2021/12/05 06:13:22;;;;;;;4.33;2.00;;;;;;;2.56;84.33;99771.72;5066347;28;20110;-84
2021/12/05 06:15:48;;;;;;;4.93;2.30;;;;;;;2.53;84.40;99770.91;5067398;28;20472;-84
2021/12/05 06:18:14;;;;;;;2.97;2.20;;;;;;;2.49;84.50;99777.81;5065746;28;20103;-83
2021/12/05 06:20:41;;;;;;;3.40;2.30;;;;;;;2.47;84.33;99781.25;5066883;28;20050;-83
2021/12/05 06:23:07;;;;;;;3.90;2.60;;;;;;;2.46;84.52;99782.13;5064778;28;20392;-83
2021/12/05 06:25:35;;;;;;;4.47;2.60;;;;;;;2.43;85.14;99785.56;5067108;28;20032;-83
2021/12/05 06:28:05;;;;;;;4.60;2.63;;;;;;;2.41;85.28;99784.72;5068581;28;20404;-84
2021/12/05 06:38:59;;;;;;;4.50;2.87;;;;;;;2.41;85.42;99793.28;5067958;28;20046;-84
2021/12/05 06:42:35;;;;;;;4.23;2.90;;;;;;;2.40;85.69;99791.59;5066858;28;20083;-83
2021/12/05 06:47:04;;;;;;;5.77;2.67;;;;;;;2.38;85.41;99811.28;5067527;28;20055;-84
2021/12/05 06:49:29;;;;;;;3.17;2.40;;;;;;;2.37;85.44;99814.69;5064752;28;20108;-83
2021/12/05 06:51:55;;;;;;;4.63;2.87;;;;;;;2.36;85.68;99810.44;5068521;28;20021;-83
2021/12/05 06:54:20;;;;;;;6.43;3.10;;;;;;;2.37;85.69;99814.69;5066692;28;20113;-83
2021/12/05 06:56:45;;;;;;;5.67;3.30;;;;;;;2.39;85.96;99818.13;5068055;28;20036;-84
2021/12/05 06:59:11;;;;;;;5.33;2.90;;;;;;;2.40;85.44;99821.50;5068206;28;20037;-83
2021/12/05 07:01:37;;;;;;;6.20;3.00;;;;;;;2.41;85.82;99823.22;5066667;28;20460;-84
2021/12/05 07:04:11;;;;;;;8.00;3.10;;;;;;;2.41;85.62;99825.78;5062241;28;20423;-83
2021/12/05 07:06:39;;;;;;;4.60;2.90;;;;;;;2.40;85.76;99834.34;5067879;28;20036;-83
2021/12/05 07:09:08;;;;;;;5.00;2.83;;;;;;;2.41;85.92;99842.06;5064542;28;20047;-83
2021/12/05 07:17:03;;;;;;;5.17;2.90;;;;;;;2.42;86.22;99850.59;5065020;28;20391;-83
2021/12/05 07:22:21;;;;;;;4.20;2.83;;;;;;;2.41;86.02;99864.28;5066738;28;20029;-83
2021/12/05 07:24:59;;;;;;;5.27;2.93;;;;;;;2.41;86.10;99861.72;5067089;28;20024;-84
2021/12/05 07:40:58;;;;;;;5.37;3.97;;;;;;;2.50;86.51;99873.63;5067787;28;20082;-83
2021/12/05 07:43:23;;;;;;;5.63;3.47;;;;;;;2.49;86.07;99875.38;5073025;28;20029;-84
2021/12/05 07:45:56;;;;;;;7.47;3.40;;;;;;;2.49;86.42;99883.06;5070039;28;20464;-83
2021/12/05 07:48:34;;;;;;;4.77;3.70;;;;;;;2.49;86.50;99880.50;5070397;28;20028;-83
2021/12/05 07:51:07;;;;;;;5.83;3.93;;;;;;;2.50;86.54;99886.47;5068632;28;20024;-83
2021/12/05 07:53:50;;;;;;;6.77;3.47;;;;;;;2.51;86.59;99886.47;5068826;28;20039;-83
2021/12/05 07:56:22;;;;;;;5.83;3.80;;;;;;;2.53;86.38;99892.44;5070915;28;20478;-83
2021/12/05 07:59:09;;;;;;;5.30;3.87;;;;;;;2.54;86.73;99881.31;5077002;28;20025;-83
2021/12/05 08:15:20;;;;;;;7.37;4.17;;;;;;;2.57;86.87;99896.69;5072193;28;20047;-83
2021/12/05 08:17:53;;;;;;;5.73;3.93;;;;;;;2.57;86.57;99896.69;5069928;28;20016;-83
2021/12/05 08:20:23;;;;;;;5.40;3.63;;;;;;;2.60;86.92;99908.66;5089952;28;20032;-83
2021/12/05 08:22:48;;;;;;;6.53;4.13;;;;;;;2.58;87.08;99902.69;5079626;28;20037;-83
2021/12/05 08:25:14;;;;;;;7.03;3.80;;;;;;;2.62;86.77;99904.38;5069927;28;20023;-83
2021/12/05 08:27:47;;;;;;;6.47;3.93;;;;;;;2.62;87.22;99904.38;5071703;28;20028;-83
2021/12/05 08:30:19;;;;;;;8.33;3.97;;;;;;;2.63;86.87;99905.19;5072422;28;20028;-83
2021/12/05 08:33:11;;;;;;;;;;;;;;;2.75;86.78;99909.38;5076579;28;20524;-83
2021/12/05 08:36:05;;;;;;;6.27;3.90;;;;;;;2.66;86.86;99910.31;5075872;28;19923;-83
2021/12/05 08:39:12;;;;;;;6.37;4.00;;;;;;;2.68;86.64;99913.72;5074634;28;20043;-83
2021/12/05 08:44:41;;;;;;;6.30;4.00;;;;;;;2.68;86.76;99924.00;5082771;28;20105;-83
2021/12/05 09:24:49;;;;;;;5.23;4.27;;;;;;;2.88;86.54;99983.78;5065656;28;20581;-83
2021/12/05 09:30:28;;;;;;;6.63;4.40;;;;;;;2.93;86.03;99993.13;5065071;28;20495;-83
2021/12/05 09:38:55;;;;;;;5.83;4.03;;;;;;;2.98;86.07;100005.13;5068339;28;20044;-84
2021/12/05 10:06:48;;;;;;;6.57;4.93;;;;;;;3.33;86.01;100028.78;5071869;28;20109;-84
2021/12/05 10:12:35;;;;;;;6.40;4.90;;;;;;;3.38;85.49;100047.59;5067657;28;20037;-85
2021/12/05 10:18:20;;;;;;;6.27;4.87;;;;;;;3.46;85.44;100052.69;5069867;28;20040;-84
2021/12/05 10:35:19;;;;;;;5.63;4.70;;;;;;;3.49;84.97;100061.22;5065999;28;20049;-83
2021/12/05 10:37:56;;;;;;;6.57;4.50;;;;;;;3.49;84.97;100063.78;5068622;28;20407;-83
2021/12/05 10:40:33;;;;;;;5.67;4.77;;;;;;;3.51;85.02;100070.63;5068461;28;20086;-84
2021/12/05 10:42:59;;;;;;;6.07;4.63;;;;;;;3.54;84.77;100075.75;5065070;28;20032;-85
2021/12/05 10:46:03;;;;;;;8.07;4.83;;;;;;;3.57;84.66;100079.13;5068994;28;20028;-84
2021/12/05 10:48:33;;;;;;;5.00;4.50;;;;;;;3.55;84.73;100073.16;5069251;28;20089;-84
2021/12/05 10:51:08;;;;;;;5.83;4.60;;;;;;;3.54;84.47;100081.72;5068212;28;20428;-84
2021/12/05 10:53:53;;;;;;;6.53;5.07;;;;;;;3.54;84.62;100080.91;5071268;28;20031;-85
2021/12/05 10:56:25;;;;;;;6.07;4.87;;;;;;;3.49;84.57;100079.22;5069578;28;20036;-84
2021/12/05 10:58:58;;;;;;;7.27;5.50;;;;;;;3.53;85.35;100079.19;5072405;28;20028;-84
2021/12/05 11:01:36;;;;;;;6.40;5.23;;;;;;;3.52;84.41;100078.31;5069457;28;20039;-84
2021/12/05 11:04:06;;;;;;;6.50;5.03;;;;;;;3.54;84.51;100078.31;5072562;28;20027;-84
2021/12/05 11:06:40;;;;;;;5.77;4.73;;;;;;;3.52;84.48;100082.63;5068018;28;20186;-83
2021/12/05 11:09:11;;;;;;;6.73;5.47;;;;;;;3.54;84.96;100084.31;5070705;28;20178;-84
2021/12/05 11:11:37;;;;;;;7.10;5.63;;;;;;;3.55;84.80;100088.59;5070047;28;20039;-84
2021/12/05 11:14:09;;;;;;;5.80;4.80;;;;;;;3.53;84.45;100084.34;5071725;28;20086;-84
2021/12/05 11:16:46;;;;;;;6.57;4.63;;;;;;;3.52;84.34;100090.34;5069309;28;20047;-84
2021/12/05 11:19:15;;;;;;;5.17;4.20;;;;;;;3.53;84.71;100095.47;5072821;28;20033;-84
2021/12/05 11:21:47;;;;;;;5.80;4.53;;;;;;;3.55;84.76;100090.31;5074731;28;20039;-84
2021/12/05 11:24:17;;;;;;;5.90;4.73;;;;;;;3.58;85.11;100098.00;5076161;28;20036;-85
2021/12/05 11:26:45;;;;;;;5.07;4.33;;;;;;;3.60;84.74;100091.09;5072054;28;20442;-85
2021/12/05 11:29:11;;;;;;;4.40;3.93;;;;;;;3.60;84.72;100106.53;5073269;28;20054;-84
2021/12/05 11:31:38;;;;;;;5.27;4.00;;;;;;;3.60;84.39;100101.41;5074204;28;20369;-85
2021/12/05 11:34:04;;;;;;;6.37;4.70;;;;;;;3.60;84.57;100096.25;5073875;28;20024;-84
2021/12/05 11:36:33;;;;;;;5.37;4.17;;;;;;;3.61;84.66;100103.97;5070515;28;20039;-85
2021/12/05 11:38:59;;;;;;;5.93;4.60;;;;;;;3.62;84.62;100102.25;5075572;28;20059;-85
2021/12/05 11:41:25;;;;;;;10.40;8.00;;;;;;;3.61;84.15;100115.97;5073890;28;20054;-84
2021/12/05 11:43:56;;;;;;;5.23;4.20;;;;;;;3.61;84.07;100111.69;5073495;28;20459;-84
2021/12/05 11:46:36;;;;;;;5.97;4.60;;;;;;;3.62;84.15;100121.13;5068279;28;20475;-85
2021/12/05 11:49:10;;;;;;;7.83;5.40;;;;;;;3.63;84.37;100124.53;5072831;28;20032;-84
2021/12/05 11:51:40;;;;;;;4.47;3.63;;;;;;;3.61;82.94;100136.53;5073182;28;20032;-84
2021/12/05 11:54:12;;;;;;;7.87;5.50;;;;;;;3.59;82.53;100130.56;5082046;28;20371;-84
2021/12/05 11:56:40;;;;;;;6.63;4.30;;;;;;;3.54;82.82;100134.91;5074224;28;20506;-84
2021/12/05 11:59:25;;;;;;;4.80;3.53;;;;;;;3.56;82.54;100136.59;5079062;28;20027;-84
2021/12/05 12:02:08;;;;;;;3.97;3.07;;;;;;;3.54;82.76;100137.47;5077547;28;20514;-84
2021/12/05 12:04:44;;;;;;;5.07;3.37;;;;;;;3.52;82.85;100140.03;5077416;28;20023;-85
2021/12/05 12:07:27;;;;;;;9.90;5.47;;;;;;;3.53;83.22;100140.91;5077537;28;20032;-84
2021/12/05 12:10:01;;;;;;;6.30;3.60;;;;;;;3.54;82.29;100137.47;5074651;28;20093;-85
2021/12/05 12:12:27;;;;;;;7.57;5.20;;;;;;;3.54;82.64;100143.47;5076682;28;20028;-85
2021/12/05 12:14:52;;;;;;;5.83;4.40;;;;;;;3.56;82.88;100140.88;5075972;28;20033;-85
2021/12/05 12:17:18;;;;;;;7.33;5.13;;;;;;;3.60;83.29;100147.69;5064055;28;20040;-84
2021/12/05 12:19:49;;;;;;;13.60;7.97;;;;;;;3.61;83.23;100151.97;5076154;28;20031;-84
2021/12/05 12:22:19;;;;;;;7.25;4.75;;;;;;;3.63;83.35;100150.25;5070421;28;20062;-84
2021/12/05 12:24:48;;;;;;;8.23;4.90;;;;;;;3.63;82.57;100147.66;5067935;28;20028;-84
2021/12/05 12:27:14;;;;;;;10.93;5.63;;;;;;;3.63;82.49;100151.13;5071198;28;20059;-85
2021/12/05 12:29:40;;;;;;;4.40;3.03;;;;;;;3.67;82.34;100144.22;5073126;28;20173;-86
2021/12/05 12:32:12;;;;;;;5.40;3.53;;;;;;;3.69;82.64;100151.91;5073440;28;20038;-84
2021/12/05 12:34:40;;;;;;;3.57;3.10;;;;;;;3.68;82.79;100153.63;5075903;28;20032;-84
2021/12/05 12:37:07;;;;;;;3.03;2.60;;;;;;;3.73;82.91;100154.47;5075587;28;20028;-83
2021/12/05 12:39:43;;;;;;;2.63;2.20;;;;;;;3.75;82.62;100159.59;5078277;28;20044;-84
2021/12/05 12:42:23;;;;;;;2.83;2.40;;;;;;;3.77;82.29;100158.69;5076022;28;20067;-85
2021/12/05 12:44:59;;;;;;;2.93;2.43;;;;;;;3.79;82.37;100166.41;5074332;28;20037;-84
2021/12/05 12:47:49;;;;;;;2.60;2.40;;;;;;;3.79;81.44;100164.69;5078337;28;20393;-84
2021/12/05 12:50:20;;;;;;;3.00;2.27;;;;;;;3.83;81.70;100174.94;5073511;28;20105;-84
2021/12/05 12:53:17;;;;;;;2.57;2.07;;;;;;;3.89;82.05;100174.91;5077335;28;20032;-85
2021/12/05 12:55:53;;;;;;;3.03;2.10;;;;;;;3.87;81.64;100172.34;5062862;28;20497;-84
2021/12/05 12:58:42;;;;;;;2.43;2.10;;;;;;;3.94;81.21;100183.41;5072678;28;20045;-83
2021/12/05 13:01:17;;;;;;;3.00;2.27;;;;;;;3.92;81.33;100170.56;5075775;28;20515;-84
2021/12/05 13:10:09;;;;;;;3.20;2.50;;;;;;;4.02;80.38;100181.66;5075017;28;20063;-84
2021/12/05 13:12:40;;;;;;;3.40;2.40;;;;;;;4.05;80.38;100189.34;5075968;28;20039;-85
2021/12/05 13:15:26;;;;;;;2.85;2.55;;;;;;;4.08;80.02;100191.91;5075453;28;20040;-85
2021/12/05 13:18:19;;;;;;;2.93;2.37;;;;;;;4.09;80.34;100185.88;5075267;28;20020;-85
2021/12/05 13:20:52;;;;;;;2.37;2.00;;;;;;;4.12;79.76;100189.25;5073400;28;20032;-85
2021/12/05 13:23:39;;;;;;;2.20;2.00;;;;;;;4.15;80.24;100191.81;5076959;28;20024;-85
2021/12/05 13:26:24;;;;;;;2.43;2.20;;;;;;;4.15;80.56;100186.66;5075478;28;20039;-86
2021/12/05 13:29:15;;;;;;;2.57;1.90;;;;;;;4.15;79.84;100196.97;5079419;28;21415;-85
2021/12/05 13:31:54;;;;;;;2.50;1.70;;;;;;;4.16;79.21;100198.66;5076548;28;20217;-84
2021/12/05 13:34:45;;;;;;;2.30;1.90;;;;;;;4.16;79.63;100203.81;5076116;28;20115;-85
2021/12/05 13:37:13;;;;;;;2.05;1.85;;;;;;;4.16;78.86;100208.97;5075832;28;20882;-85
2021/12/05 13:39:48;;;;;;;2.50;1.83;;;;;;;4.13;78.88;100221.88;5074891;28;20504;-84
2021/12/05 13:42:24;;;;;;;3.03;2.20;;;;;;;4.10;79.05;100222.75;5078404;28;20047;-85
2021/12/05 13:45:05;;;;;;;3.00;2.67;;;;;;;4.12;79.92;100228.75;5075457;28;20174;-85
2021/12/05 13:47:32;;;;;;;3.00;2.30;;;;;;;4.13;79.72;100237.31;5074888;28;20711;-84
2021/12/05 13:50:16;;;;;;;2.73;2.20;;;;;;;4.16;79.75;100234.72;5072325;28;20164;-86
2021/12/05 13:52:42;;;;;;;3.60;2.20;;;;;;;4.14;79.48;100233.88;5075172;28;20150;-85
2021/12/05 13:55:44;;;;;;;2.63;2.23;;;;;;;4.16;79.99;100240.72;5075613;28;20722;-83
2021/12/05 13:58:18;;;;;;;2.40;2.20;;;;;;;4.13;78.75;100245.03;5072795;28;20089;-85
2021/12/05 14:01:05;;;;;;;2.70;2.30;;;;;;;4.09;79.46;100242.50;5076911;28;20051;-84
2021/12/05 14:03:40;;;;;;;2.60;2.30;;;;;;;4.07;79.34;100251.97;5077767;28;20024;-85
2021/12/05 14:06:43;;;;;;;3.93;2.40;;;;;;;4.10;79.10;100251.06;5074248;28;20027;-85
2021/12/05 14:09:13;;;;;;;3.23;2.60;;;;;;;4.08;79.59;100260.53;5074346;28;20213;-84
2021/12/05 14:11:55;;;;;;;3.13;2.80;;;;;;;4.08;79.11;100258.81;5075601;28;20107;-85
2021/12/05 14:14:25;;;;;;;2.83;2.50;;;;;;;4.08;78.89;100265.66;5074930;28;20101;-84
2021/12/05 14:16:52;;;;;;;2.97;2.67;;;;;;;4.09;78.63;100273.41;5076195;28;20483;-84
2021/12/05 14:19:21;;;;;;;3.80;2.70;;;;;;;4.07;78.57;100272.56;5077791;28;20422;-84
2021/12/05 14:21:50;;;;;;;3.43;2.90;;;;;;;4.07;78.29;100272.56;5071787;28;20040;-84
2021/12/05 14:24:18;;;;;;;3.67;2.80;;;;;;;4.07;78.43;100280.28;5073319;28;20043;-85
2021/12/05 14:26:48;;;;;;;3.03;2.70;;;;;;;4.07;78.14;100287.13;5074000;28;20039;-85
2021/12/05 14:29:17;;;;;;;3.33;3.00;;;;;;;4.05;78.27;100287.16;5073571;28;20036;-85
2021/12/05 14:31:52;;;;;;;3.40;2.77;;;;;;;4.07;78.88;100293.16;5071646;28;20043;-85
2021/12/05 14:34:19;;;;;;;3.57;3.03;;;;;;;4.08;79.12;100300.00;5073774;28;20123;-84
2021/12/05 14:36:48;;;;;;;4.67;2.93;;;;;;;4.08;78.83;100300.00;5074962;28;20037;-84
2021/12/05 14:39:26;;;;;;;5.83;3.30;;;;;;;4.06;79.41;100308.59;5072829;28;20041;-84
2021/12/05 14:41:56;;;;;;;5.23;2.93;;;;;;;4.07;79.56;100318.03;5073629;28;20043;-85
2021/12/05 14:44:22;;;;;;;3.50;3.20;;;;;;;4.07;80.28;100318.88;5071141;28;20029;-84
2021/12/05 14:46:51;;;;;;;3.60;3.30;;;;;;;4.06;80.78;100322.31;5072730;28;20028;-85
2021/12/05 14:49:19;;;;;;;3.90;3.50;;;;;;;4.05;80.97;100328.34;5071196;28;20048;-86
2021/12/05 14:51:45;;;;;;;4.50;3.50;;;;;;;4.06;80.93;100337.78;5078651;28;20040;-84
2021/12/05 14:54:18;;;;;;;4.40;3.67;;;;;;;4.05;80.57;100345.50;5078767;28;20070;-84
2021/12/05 14:56:44;;;;;;;4.50;3.87;;;;;;;4.03;81.28;100353.22;5077241;28;20507;-84
2021/12/05 14:59:12;;;;;;;4.20;3.70;;;;;;;4.02;80.67;100356.66;5074867;28;20036;-85
2021/12/05 15:01:40;;;;;;;3.77;3.47;;;;;;;4.02;79.59;100359.25;5076887;28;20196;-89
2021/12/05 15:04:06;;;;;;;4.90;4.10;;;;;;;4.02;79.33;100361.81;5077466;28;20060;-85
2021/12/05 15:06:42;;;;;;;4.27;3.87;;;;;;;4.02;79.85;100371.25;5076886;28;20028;-85
2021/12/05 15:09:22;;;;;;;4.67;4.10;;;;;;;4.03;79.80;100383.25;5075782;28;20036;-86
2021/12/05 15:11:58;;;;;;;4.70;4.20;;;;;;;3.97;79.64;100378.16;5078146;28;20029;-85
2021/12/05 15:14:24;;;;;;;4.37;3.97;;;;;;;3.97;79.15;100389.28;5075243;28;20024;-85
2021/12/05 15:16:54;;;;;;;5.33;4.07;;;;;;;3.94;79.85;100390.19;5079827;28;20039;-84
2021/12/05 15:19:19;;;;;;;5.23;3.90;;;;;;;3.94;80.45;100394.44;5078919;28;20061;-85
2021/12/05 15:21:45;;;;;;;4.70;4.20;;;;;;;3.95;81.31;100396.16;5075817;28;20028;-85
2021/12/05 15:24:15;;;;;;;4.83;4.37;;;;;;;3.92;80.79;100393.63;5080060;28;20111;-86
2021/12/05 15:26:41;;;;;;;4.83;4.33;;;;;;;3.92;80.92;100403.94;5079371;28;20029;-85
2021/12/05 15:29:06;;;;;;;5.73;5.13;;;;;;;3.90;81.38;100408.22;5082528;28;20101;-85
2021/12/05 15:31:37;;;;;;;5.63;5.13;;;;;;;3.91;81.30;100417.66;5078605;28;20028;-84
2021/12/05 15:34:25;;;;;;;5.90;5.13;;;;;;;3.90;81.58;100423.66;5076297;28;20075;-85
2021/12/05 15:36:52;;;;;;;5.73;4.90;;;;;;;3.89;81.80;100427.09;5077361;28;20020;-86
2021/12/05 15:39:21;;;;;;;6.37;5.70;;;;;;;3.89;80.97;100434.81;5075813;28;20056;-85
2021/12/05 15:41:52;;;;;;;5.40;4.90;;;;;;;3.88;81.62;100435.69;5077028;28;20124;-85
2021/12/05 15:44:34;;;;;;;5.80;5.20;;;;;;;3.87;82.07;100434.81;5072176;28;20116;-85
2021/12/05 15:47:05;;;;;;;6.60;5.00;;;;;;;3.86;81.57;100443.38;5072526;28;20074;-84
2021/12/05 15:49:48;;;;;;;5.75;5.15;;;;;;;3.87;81.39;100451.97;5068040;28;20034;-84
2021/12/05 15:52:14;;;;;;;7.63;5.40;;;;;;;3.83;81.91;100452.84;5067630;28;20036;-84
2021/12/05 15:54:43;;;;;;;6.63;5.20;;;;;;;3.82;81.41;100451.13;5072506;28;20033;-84
2021/12/05 15:57:18;;;;;;;7.03;5.57;;;;;;;3.84;81.75;100457.13;5070972;28;20035;-84
2021/12/05 15:59:46;;;;;;;5.97;5.33;;;;;;;3.84;82.23;100464.84;5067678;28;20058;-84
2021/12/05 16:02:15;;;;;;;5.80;5.17;;;;;;;3.84;82.16;100470.00;5071539;28;20051;-85
2021/12/05 16:04:40;;;;;;;6.93;5.47;;;;;;;3.80;82.06;100471.75;5070051;28;20038;-85
2021/12/05 16:07:10;;;;;;;6.60;5.77;;;;;;;3.80;81.83;100464.84;5069054;28;20032;-84
2021/12/05 16:09:36;;;;;;;5.63;5.03;;;;;;;3.83;82.05;100473.44;5068423;28;20743;-85
2021/12/05 16:12:09;;;;;;;6.47;5.73;;;;;;;3.78;82.00;100476.03;5061438;28;20051;-85
2021/12/05 16:14:38;;;;;;;6.33;5.73;;;;;;;3.80;82.47;100487.19;5062737;28;20028;-85
2021/12/05 16:17:19;;;;;;;6.20;5.60;;;;;;;3.81;82.81;100486.31;5065500;28;21159;-85
2021/12/05 16:20:18;;;;;;;6.20;5.60;;;;;;;3.83;82.54;100494.03;5062460;28;20032;-85
2021/12/05 16:22:53;;;;;;;6.63;5.90;;;;;;;3.78;82.71;100502.59;5065134;28;20525;-85
2021/12/05 16:25:19;;;;;;;7.87;6.37;;;;;;;3.76;82.60;100503.47;5067839;28;20487;-85
2021/12/05 16:27:50;;;;;;;6.87;6.13;;;;;;;3.75;82.31;100507.78;5066525;28;20491;-85
2021/12/05 16:30:24;;;;;;;6.50;5.80;;;;;;;3.74;82.34;100516.38;5070072;28;20422;-85
2021/12/05 16:32:51;;;;;;;7.17;6.47;;;;;;;3.73;81.10;100519.78;5070340;28;20035;-84
2021/12/05 16:35:46;;;;;;;6.53;5.80;;;;;;;3.76;81.78;100524.91;5069517;28;20037;-86
2021/12/05 16:38:36;;;;;;;6.40;5.73;;;;;;;3.72;81.75;100525.78;5069714;28;20475;-85